»·PEaware :: N517GA CYVR-KPDT

N517GA :: CYVR-KPDT

FLIGHT INFORMATION

Flight Status: Arrived
Operator: Privately registered:
United States
More flights under this callsign
Pilot: John H. (7647)
Aircraft: DEHAVILLAND DH-6 TWIN OTTER
(DHC6)
More flights by this aircraft type
Origin: CYVR Vancouver Intl
Canada
Destination: KPDT Eastern Oreg Regl At Pendleto
United States
More flights between these airports :: More routes between these airports
Route: YVR HUH PAE SEA YKM LACIB GINLE ZUTED GARYC REYOT FAVUB SAYOS
File this flight plan on PilotEdge
Remarks:
Altitude:
(Current/Filed)
7,500ft
Speed:
(Current/Filed)
145kts
Departed: 05-Jun-16 02:39 PM
Arrived: 05-Jun-16 04:56 PM
Distance/Time
Traveled:
274nm/2:17
Distance/Time
To Go:
Arrived

Flight Plot

Page will automatically refresh every two minutes.


Map Options




Map Legend


Flown Route
Filed Route
Departure Airport
Arrival Airport
Navaid (VOR, NDB)
Fix

Horizontal Profiles

Position Reports

Time Latitude Longitude Heading Altitude Ground
Speed
05-Jun-16 14:33 49.200483 -123.160605 279 20ft 0kts
05-Jun-16 14:34 49.200483 -123.160605 279 20ft 0kts
05-Jun-16 14:35 49.200483 -123.160605 279 20ft 0kts
05-Jun-16 14:36 49.202578 -123.180514 279 390ft 93kts
05-Jun-16 14:37 49.191661 -123.212034 170 1621ft 123kts
05-Jun-16 14:38 49.165532 -123.186408 151 3201ft 111kts
05-Jun-16 14:39 49.138488 -123.164600 169 4612ft 110kts
05-Jun-16 14:40 49.109001 -123.155072 179 5962ft 109kts
05-Jun-16 14:41 49.079468 -123.147215 145 7193ft 118kts
05-Jun-16 14:42 49.064316 -123.091301 111 7505ft 164kts
05-Jun-16 14:43 49.048531 -123.023330 110 7499ft 172kts
05-Jun-16 14:44 49.032586 -122.954344 110 7497ft 172kts
05-Jun-16 14:45 49.016615 -122.885385 109 7495ft 172kts
05-Jun-16 14:46 49.000731 -122.816864 109 7494ft 171kts
05-Jun-16 14:47 48.984899 -122.748877 110 7511ft 170kts
05-Jun-16 14:48 48.969038 -122.680994 111 7515ft 169kts
05-Jun-16 14:49 48.953210 -122.613506 111 7517ft 169kts
05-Jun-16 14:50 48.922209 -122.573776 171 7515ft 156kts
05-Jun-16 14:51 48.880268 -122.560271 172 7516ft 156kts
05-Jun-16 14:52 48.837995 -122.547490 173 7712ft 172kts
05-Jun-16 14:53 48.796685 -122.535101 174 8617ft 146kts
05-Jun-16 14:54 48.756618 -122.523195 174 9269ft 148kts
05-Jun-16 14:55 48.716040 -122.511147 174 9869ft 149kts
05-Jun-16 14:56 48.675172 -122.499031 175 10419ft 150kts
05-Jun-16 14:57 48.631853 -122.486241 174 10516ft 166kts
05-Jun-16 14:58 48.586407 -122.472784 174 10515ft 165kts
05-Jun-16 14:59 48.541892 -122.459647 174 10518ft 161kts
05-Jun-16 15:00 48.497861 -122.446689 174 10518ft 161kts
05-Jun-16 15:01 48.453821 -122.433748 174 10517ft 161kts
05-Jun-16 15:02 48.409683 -122.420800 174 10515ft 161kts
05-Jun-16 15:03 48.365585 -122.407886 174 10512ft 161kts
05-Jun-16 15:04 48.321693 -122.395055 174 10510ft 161kts
05-Jun-16 15:05 48.277456 -122.382146 174 10510ft 162kts
05-Jun-16 15:06 48.233260 -122.369272 174 10510ft 162kts
05-Jun-16 15:07 48.217352 -122.364644 174 10510ft 162kts
05-Jun-16 15:08 48.183272 -122.354738 174 10510ft 162kts
05-Jun-16 15:09 48.146574 -122.343843 174 10509ft 162kts
05-Jun-16 15:10 48.104369 -122.331385 175 10516ft 162kts
05-Jun-16 15:11 48.059966 -122.318497 175 10524ft 163kts
05-Jun-16 15:12 48.040736 -122.312936 175 10527ft 163kts
05-Jun-16 15:13 48.010507 -122.304209 175 10532ft 163kts
05-Jun-16 15:14 47.965913 -122.291351 174 10535ft 164kts
05-Jun-16 15:15 47.921054 -122.278806 183 10527ft 162kts
05-Jun-16 15:16 47.876822 -122.281134 188 10535ft 160kts
05-Jun-16 15:17 47.832426 -122.283949 188 10535ft 160kts
05-Jun-16 15:18 47.788055 -122.286846 188 10525ft 160kts
05-Jun-16 15:19 47.743871 -122.289743 188 10515ft 160kts
05-Jun-16 15:20 47.699435 -122.292655 188 10505ft 159kts
05-Jun-16 15:21 47.655192 -122.295552 188 10499ft 159kts
05-Jun-16 15:22 47.614999 -122.298179 188 10499ft 159kts
05-Jun-16 15:23 47.571618 -122.301010 188 10508ft 158kts
05-Jun-16 15:24 47.527587 -122.303878 188 10508ft 159kts
05-Jun-16 15:25 47.483563 -122.306740 188 10511ft 158kts
05-Jun-16 15:26 47.439639 -122.307847 166 10501ft 165kts
05-Jun-16 15:27 47.411421 -122.255093 128 10499ft 175kts
05-Jun-16 15:28 47.386999 -122.201312 127 10494ft 174kts
05-Jun-16 15:29 47.360148 -122.141883 127 10490ft 175kts
05-Jun-16 15:30 47.333252 -122.082398 127 10493ft 174kts
05-Jun-16 15:31 47.306396 -122.023129 127 10494ft 174kts
05-Jun-16 15:32 47.279379 -121.963633 127 10493ft 175kts
05-Jun-16 15:33 47.252243 -121.904002 127 10491ft 175kts
05-Jun-16 15:34 47.225207 -121.844714 127 10491ft 175kts
05-Jun-16 15:35 47.198183 -121.785629 126 9926ft 174kts
05-Jun-16 15:36 47.171304 -121.726943 126 9383ft 173kts
05-Jun-16 15:37 47.144593 -121.668741 126 8880ft 171kts
05-Jun-16 15:38 47.117971 -121.610849 125 8412ft 170kts
05-Jun-16 15:39 47.091566 -121.553553 125 7980ft 169kts
05-Jun-16 15:40 47.065381 -121.496853 125 7580ft 167kts
05-Jun-16 15:41 47.038869 -121.439546 125 7511ft 170kts
05-Jun-16 15:42 47.012440 -121.382690 122 7525ft 170kts
05-Jun-16 15:43 46.986087 -121.325571 121 7538ft 168kts
05-Jun-16 15:44 46.960102 -121.269309 121 7548ft 166kts
05-Jun-16 15:45 46.934141 -121.213564 120 7518ft 163kts
05-Jun-16 15:46 46.908618 -121.158933 120 7519ft 162kts
05-Jun-16 15:47 46.883555 -121.105419 120 7517ft 161kts
05-Jun-16 15:48 46.858195 -121.051364 121 7513ft 162kts
05-Jun-16 15:49 46.832712 -120.997166 121 7507ft 162kts
05-Jun-16 15:50 46.806953 -120.942495 121 7501ft 163kts
05-Jun-16 15:51 46.781272 -120.888096 122 7496ft 164kts
05-Jun-16 15:52 46.755270 -120.833128 122 7490ft 164kts
05-Jun-16 15:53 46.729295 -120.778324 123 7484ft 164kts
05-Jun-16 15:54 46.703247 -120.723493 123 7481ft 164kts
05-Jun-16 15:55 46.677174 -120.668710 123 7481ft 164kts
05-Jun-16 15:56 46.651041 -120.613899 123 7481ft 164kts
05-Jun-16 15:57 46.625001 -120.559391 123 7506ft 164kts
05-Jun-16 15:58 46.598803 -120.504655 123 7509ft 164kts
05-Jun-16 15:59 46.572738 -120.450304 123 7335ft 162kts
05-Jun-16 16:00 46.544290 -120.399128 127 6728ft 162kts
05-Jun-16 16:01 46.515990 -120.348989 128 6172ft 160kts
05-Jun-16 16:02 46.488146 -120.299201 128 5652ft 158kts
05-Jun-16 16:03 46.461493 -120.252078 128 5613ft 155kts
05-Jun-16 16:04 46.433069 -120.202024 128 5609ft 163kts
05-Jun-16 16:05 46.404060 -120.151059 128 5609ft 164kts
05-Jun-16 16:06 46.375128 -120.100325 128 5609ft 164kts
05-Jun-16 16:07 46.346064 -120.049451 128 5609ft 164kts
05-Jun-16 16:08 46.316945 -119.998575 128 5609ft 164kts
05-Jun-16 16:09 46.287888 -119.947927 128 5601ft 164kts
05-Jun-16 16:10 46.258591 -119.896936 127 5591ft 164kts
05-Jun-16 16:11 46.229353 -119.846141 127 5581ft 164kts
05-Jun-16 16:12 46.200196 -119.795570 126 5570ft 163kts
05-Jun-16 16:13 46.171176 -119.745312 126 5564ft 163kts
05-Jun-16 16:14 46.146968 -119.703454 126 5564ft 162kts
05-Jun-16 16:15 46.113141 -119.645090 126 5564ft 162kts
05-Jun-16 16:16 46.088919 -119.603375 126 5564ft 162kts
05-Jun-16 16:17 46.054937 -119.544960 126 5566ft 162kts
05-Jun-16 16:18 46.030779 -119.503507 126 5569ft 162kts
05-Jun-16 16:19 46.001896 -119.454026 126 5572ft 162kts
05-Jun-16 16:20 45.972989 -119.404528 126 5587ft 161kts
05-Jun-16 16:21 45.944094 -119.355039 126 5597ft 161kts
05-Jun-16 16:22 45.917922 -119.304076 91 5587ft 156kts
05-Jun-16 16:23 45.936054 -119.249804 57 5600ft 151kts
05-Jun-16 16:24 45.957682 -119.198207 57 5598ft 151kts
05-Jun-16 16:25 45.979498 -119.146376 56 5598ft 151kts
05-Jun-16 16:26 46.001355 -119.094363 56 5599ft 152kts
05-Jun-16 16:27 46.021689 -119.043444 75 5568ft 158kts
05-Jun-16 16:28 46.010358 -118.981496 104 5586ft 161kts
05-Jun-16 16:29 45.996222 -118.920233 104 5593ft 161kts
05-Jun-16 16:30 45.982081 -118.859357 104 5602ft 160kts
05-Jun-16 16:31 45.967858 -118.798283 104 5613ft 160kts
05-Jun-16 16:32 45.953684 -118.737572 104 5619ft 159kts
05-Jun-16 16:33 45.939655 -118.677659 104 5620ft 154kts
05-Jun-16 16:34 45.927739 -118.626972 103 5617ft 121kts
05-Jun-16 16:35 45.917047 -118.583302 118 5613ft 115kts
05-Jun-16 16:36 45.887333 -118.563373 153 5618ft 119kts
05-Jun-16 16:37 45.856260 -118.546949 154 5619ft 119kts
05-Jun-16 16:38 45.824992 -118.530637 155 5621ft 120kts
05-Jun-16 16:39 45.793338 -118.514139 154 5604ft 122kts
05-Jun-16 16:40 45.761318 -118.497489 155 5605ft 122kts
05-Jun-16 16:41 45.729220 -118.480807 156 5607ft 123kts
05-Jun-16 16:42 45.696656 -118.470978 213 5607ft 124kts
05-Jun-16 16:43 45.694734 -118.513487 284 5610ft 114kts
05-Jun-16 16:44 45.695522 -118.564263 274 5157ft 142kts
05-Jun-16 16:45 45.695516 -118.621621 275 4389ft 131kts
05-Jun-16 16:46 45.695505 -118.665703 277 3784ft 89kts
05-Jun-16 16:47 45.695503 -118.697350 280 3345ft 75kts
05-Jun-16 16:48 45.695496 -118.726389 277 2944ft 72kts
05-Jun-16 16:49 45.695468 -118.754322 280 2565ft 69kts
05-Jun-16 16:50 45.695435 -118.781903 281 2186ft 69kts
05-Jun-16 16:51 45.695424 -118.809218 282 1803ft 68kts
05-Jun-16 16:52 45.695420 -118.835094 271 1503ft 41kts
05-Jun-16 16:53 45.694932 -118.837082 168 1503ft 0kts
05-Jun-16 16:54 45.694932 -118.837082 168 1503ft 0kts

Navigation Log

Ident Type
1. CYVR Airport
2. YVR Navaid
3. HUH Navaid
4. PAE Navaid
5. SEA Navaid
6. YKM Navaid
7. LACIB Fix
8. GINLE Fix
9. ZUTED Fix
10. GARYC Fix
11. REYOT Fix
12. FAVUB Fix
13. SAYOS Fix
14. KPDT Airport